New Bern, NC

5:45 AM EDT on April 19, 2018 (GMT -0400)
Craven County Regional | | Change Station
Active Advisory: Special Statement

Elev 16 ft 35.07 °N, 77.04 °W | Updated 51 minutes ago

Clear
Clear
69 °F
Feels Like 69 °F
N
12
Wind Variable Wind from SW
Gusts 22 mph

Today
High -- | Low -- °F
--% Chance of Precip.
Yesterday
High -- | Low -- °F
Precip. -- in
Pressure 29.75 in
Visibility 10.0 miles
Clouds Clear
Dew Point 51 °F
Humidity 53%
Rainfall 0.00 in
Snow Depth Not available.
6:31 AM 7:44 PM
Waxing Crescent, 14% visible
METAR KEWN 190854Z AUTO 23010G19KT 10SM CLR 21/11 A2975 RMK AO2 SLP073 T02060106 56006
Pressure 29.75 in
Visibility 10.0 miles
Clouds Clear
Dew Point 51 °F
Humidity 53%
Rainfall 0.00 in
Snow Depth Not available.
6:31 AM 7:44 PM
Waxing Crescent, 14% visible
METAR KEWN 190854Z AUTO 23010G19KT 10SM CLR 21/11 A2975 RMK AO2 SLP073 T02060106 56006

Get Your Daily Forecast Email!

Thanks for signing up!

Be on the lookout for a verification email in your inbox.

You'll start receiving severe weather alerts in your inbox..

×

10-Day Weather Forecast

Almanac

Astronomy

Apr. 19, 2018 Rise Set
Actual Time
Civil Twilight
Nautical Twilight
Astronomical Twilight
Moon
Length of Visible Light
Length of Day
Tomorrow will be .
, % of the Moon is Illuminated

Today's Extremes

State Highs State Lows

Community

WunderPhotos

Category 6

Welcome to Category 6. This is the collective home for Weather Underground's featured writeups by Dr. Jeff Masters (right), Bob Henson (left), Chris Burt, and other regular contributors.

Nearby

Air Quality

  Air Quality AQ Index Pollutant
Not available.

Snow Depth

Station Depth Elevation

Earthquake Activity

City Distance Mag. Time & Date
Minimum magnitude displayed is 2.5.

Coastal Water Temperatures

Place Temperature

Stations

Nearby Weather Stations

Station Location Temp. Windchill Dew Point Humidity Wind Precip. Elev Updated Type
                   

Watches & Warnings

Special Statement
Issued: 4:56 AM EDT Apr. 19, 2018 – National Weather Service

... Increased fire danger this afternoon...

West winds gusting to 25 to 30 mph combined with relative
humidities of 30 to 35 percent will result in elevated fire danger
conditions this afternoon.

Outdoor burning is discouraged. Please refer to your local burn
permitting authority on whether you can burn. If you do burn, use
extreme caution and ensure fire suppression equipment is readily
available.


11


456 am EDT Thu Apr 19 2018

... Increased fire danger this afternoon...

West winds gusting to 25 to 30 mph combined with relative
humidities of 30 to 35 percent will result in elevated fire danger
conditions this afternoon.

Outdoor burning is discouraged. Please refer to your local burn
permitting authority on whether you can burn. If you do burn, use
extreme caution and ensure fire suppression equipment is readily
available.


11